sensor_id;sensor_type;location;lat;lon;timestamp;temperature;humidity
69944;DHT22;57257;48.408;-4.498;2022-09-09T00:04:33;17.98;75.38
69944;DHT22;57257;48.408;-4.498;2022-09-09T00:09:49;17.97;75.42
69944;DHT22;57257;48.408;-4.498;2022-09-09T00:12:31;17.97;75.58
69944;DHT22;57257;48.408;-4.498;2022-09-09T00:15:07;17.97;75.62
69944;DHT22;57257;48.408;-4.498;2022-09-09T00:17:41;17.97;75.70
69944;DHT22;57257;48.408;-4.498;2022-09-09T00:22:49;17.93;75.78
69944;DHT22;57257;48.408;-4.498;2022-09-09T00:25:29;17.91;75.74
69944;DHT22;57257;48.408;-4.498;2022-09-09T00:27:57;17.91;75.69
69944;DHT22;57257;48.408;-4.498;2022-09-09T00:30:24;17.88;75.78
69944;DHT22;57257;48.408;-4.498;2022-09-09T00:32:54;17.87;75.65
69944;DHT22;57257;48.408;-4.498;2022-09-09T00:36:02;17.90;75.68
69944;DHT22;57257;48.408;-4.498;2022-09-09T00:41:14;17.83;75.90
69944;DHT22;57257;48.408;-4.498;2022-09-09T00:43:49;17.81;75.91
69944;DHT22;57257;48.408;-4.498;2022-09-09T00:46:33;17.86;75.83
69944;DHT22;57257;48.408;-4.498;2022-09-09T00:52:02;17.88;75.89
69944;DHT22;57257;48.408;-4.498;2022-09-09T00:54:52;17.91;75.81
69944;DHT22;57257;48.408;-4.498;2022-09-09T00:57:25;17.91;75.93
69944;DHT22;57257;48.408;-4.498;2022-09-09T01:02:36;17.96;75.82
69944;DHT22;57257;48.408;-4.498;2022-09-09T01:05:26;17.98;75.83
69944;DHT22;57257;48.408;-4.498;2022-09-09T01:07:52;18.00;75.67
69944;DHT22;57257;48.408;-4.498;2022-09-09T01:10:47;17.97;75.54
69944;DHT22;57257;48.408;-4.498;2022-09-09T01:13:22;17.98;75.50
69944;DHT22;57257;48.408;-4.498;2022-09-09T01:15:48;18.00;75.47
69944;DHT22;57257;48.408;-4.498;2022-09-09T01:18:17;17.97;75.52
69944;DHT22;57257;48.408;-4.498;2022-09-09T01:21:09;17.98;75.46
69944;DHT22;57257;48.408;-4.498;2022-09-09T01:24:02;18.00;75.50
69944;DHT22;57257;48.408;-4.498;2022-09-09T01:26:42;17.98;75.34
69944;DHT22;57257;48.408;-4.498;2022-09-09T01:29:11;17.96;75.30
69944;DHT22;57257;48.408;-4.498;2022-09-09T01:32:50;17.93;75.32
69944;DHT22;57257;48.408;-4.498;2022-09-09T01:34:49;17.93;75.21
69944;DHT22;57257;48.408;-4.498;2022-09-09T01:37:15;17.90;75.16
69944;DHT22;57257;48.408;-4.498;2022-09-09T01:39:43;17.90;75.17
69944;DHT22;57257;48.408;-4.498;2022-09-09T01:42:12;17.87;75.14
69944;DHT22;57257;48.408;-4.498;2022-09-09T01:44:38;17.86;75.27
69944;DHT22;57257;48.408;-4.498;2022-09-09T01:47:05;17.84;75.18
69944;DHT22;57257;48.408;-4.498;2022-09-09T01:49:31;17.83;75.16
69944;DHT22;57257;48.408;-4.498;2022-09-09T01:51:58;17.81;75.23
69944;DHT22;57257;48.408;-4.498;2022-09-09T01:54:26;17.86;75.18
69944;DHT22;57257;48.408;-4.498;2022-09-09T02:02:20;17.83;75.28
69944;DHT22;57257;48.408;-4.498;2022-09-09T02:04:52;17.83;75.27
69944;DHT22;57257;48.408;-4.498;2022-09-09T02:09:54;17.86;75.36
69944;DHT22;57257;48.408;-4.498;2022-09-09T02:12:24;17.81;75.34
69944;DHT22;57257;48.408;-4.498;2022-09-09T02:14:59;17.81;75.51
69944;DHT22;57257;48.408;-4.498;2022-09-09T02:17:30;17.80;75.48
69944;DHT22;57257;48.408;-4.498;2022-09-09T02:20:18;17.78;75.52
69944;DHT22;57257;48.408;-4.498;2022-09-09T02:22:45;17.80;75.36
69944;DHT22;57257;48.408;-4.498;2022-09-09T02:25:17;17.83;75.42
69944;DHT22;57257;48.408;-4.498;2022-09-09T02:27:45;17.80;75.43
69944;DHT22;57257;48.408;-4.498;2022-09-09T02:30:12;17.80;75.38
69944;DHT22;57257;48.408;-4.498;2022-09-09T02:32:40;17.80;75.40
69944;DHT22;57257;48.408;-4.498;2022-09-09T02:35:10;17.78;75.30
69944;DHT22;57257;48.408;-4.498;2022-09-09T02:37:38;17.78;75.40
69944;DHT22;57257;48.408;-4.498;2022-09-09T02:40:10;17.78;75.27
69944;DHT22;57257;48.408;-4.498;2022-09-09T02:42:44;17.76;75.38
69944;DHT22;57257;48.408;-4.498;2022-09-09T02:45:12;17.74;75.32
69944;DHT22;57257;48.408;-4.498;2022-09-09T02:57:57;17.71;75.19
69944;DHT22;57257;48.408;-4.498;2022-09-09T03:00:27;17.70;75.26
69944;DHT22;57257;48.408;-4.498;2022-09-09T03:02:54;17.71;75.33
69944;DHT22;57257;48.408;-4.498;2022-09-09T03:05:20;17.70;75.32
69944;DHT22;57257;48.408;-4.498;2022-09-09T03:07:46;17.73;75.37
69944;DHT22;57257;48.408;-4.498;2022-09-09T03:10:12;17.77;75.22
69944;DHT22;57257;48.408;-4.498;2022-09-09T03:12:38;17.74;75.25
69944;DHT22;57257;48.408;-4.498;2022-09-09T03:15:05;17.70;75.25
69944;DHT22;57257;48.408;-4.498;2022-09-09T03:17:31;17.71;75.30
69944;DHT22;57257;48.408;-4.498;2022-09-09T03:19:56;17.73;75.17
69944;DHT22;57257;48.408;-4.498;2022-09-09T03:22:23;17.70;75.20
69944;DHT22;57257;48.408;-4.498;2022-09-09T03:24:48;17.73;75.13
69944;DHT22;57257;48.408;-4.498;2022-09-09T03:27:13;17.73;74.92
69944;DHT22;57257;48.408;-4.498;2022-09-09T03:29:42;17.71;74.94
69944;DHT22;57257;48.408;-4.498;2022-09-09T03:32:08;17.73;74.90
69944;DHT22;57257;48.408;-4.498;2022-09-09T03:34:36;17.76;74.75
69944;DHT22;57257;48.408;-4.498;2022-09-09T03:37:04;17.73;74.78
69944;DHT22;57257;48.408;-4.498;2022-09-09T03:39:30;17.73;74.62
69944;DHT22;57257;48.408;-4.498;2022-09-09T03:41:56;17.74;74.69
69944;DHT22;57257;48.408;-4.498;2022-09-09T03:44:21;17.76;74.71
69944;DHT22;57257;48.408;-4.498;2022-09-09T03:46:47;17.74;74.65
69944;DHT22;57257;48.408;-4.498;2022-09-09T03:49:12;17.73;74.56
69944;DHT22;57257;48.408;-4.498;2022-09-09T03:51:38;17.70;74.49
69944;DHT22;57257;48.408;-4.498;2022-09-09T03:54:04;17.69;74.40
69944;DHT22;57257;48.408;-4.498;2022-09-09T03:56:33;17.67;74.49
69944;DHT22;57257;48.408;-4.498;2022-09-09T03:58:59;17.63;74.53
69944;DHT22;57257;48.408;-4.498;2022-09-09T04:01:24;17.67;74.48
69944;DHT22;57257;48.408;-4.498;2022-09-09T04:03:49;17.64;74.47
69944;DHT22;57257;48.408;-4.498;2022-09-09T04:06:15;17.66;74.56
69944;DHT22;57257;48.408;-4.498;2022-09-09T04:08:42;17.63;74.52
69944;DHT22;57257;48.408;-4.498;2022-09-09T04:11:08;17.63;74.59
69944;DHT22;57257;48.408;-4.498;2022-09-09T04:13:35;17.63;74.71
69944;DHT22;57257;48.408;-4.498;2022-09-09T04:16:03;17.62;74.73
69944;DHT22;57257;48.408;-4.498;2022-09-09T04:18:29;17.62;74.75
69944;DHT22;57257;48.408;-4.498;2022-09-09T04:20:55;17.62;74.81
69944;DHT22;57257;48.408;-4.498;2022-09-09T04:23:23;17.63;74.89
69944;DHT22;57257;48.408;-4.498;2022-09-09T04:25:51;17.62;74.72
69944;DHT22;57257;48.408;-4.498;2022-09-09T04:28:18;17.60;74.80
69944;DHT22;57257;48.408;-4.498;2022-09-09T04:30:45;17.62;74.77
69944;DHT22;57257;48.408;-4.498;2022-09-09T04:33:11;17.62;74.82
69944;DHT22;57257;48.408;-4.498;2022-09-09T04:35:37;17.62;74.72
69944;DHT22;57257;48.408;-4.498;2022-09-09T04:38:03;17.59;74.73
69944;DHT22;57257;48.408;-4.498;2022-09-09T04:40:29;17.60;74.80
69944;DHT22;57257;48.408;-4.498;2022-09-09T04:42:58;17.59;74.85
69944;DHT22;57257;48.408;-4.498;2022-09-09T04:45:23;17.63;74.87
69944;DHT22;57257;48.408;-4.498;2022-09-09T04:47:49;17.62;74.79
69944;DHT22;57257;48.408;-4.498;2022-09-09T04:50:14;17.64;74.74
69944;DHT22;57257;48.408;-4.498;2022-09-09T04:52:41;17.63;74.63
69944;DHT22;57257;48.408;-4.498;2022-09-09T04:55:07;17.60;74.69
69944;DHT22;57257;48.408;-4.498;2022-09-09T04:57:32;17.60;74.79
69944;DHT22;57257;48.408;-4.498;2022-09-09T04:59:58;17.60;74.80
69944;DHT22;57257;48.408;-4.498;2022-09-09T05:02:25;17.59;74.80
69944;DHT22;57257;48.408;-4.498;2022-09-09T05:04:51;17.62;74.77
69944;DHT22;57257;48.408;-4.498;2022-09-09T05:07:16;17.60;74.85
69944;DHT22;57257;48.408;-4.498;2022-09-09T05:09:42;17.60;74.83
69944;DHT22;57257;48.408;-4.498;2022-09-09T05:12:07;17.57;74.88
69944;DHT22;57257;48.408;-4.498;2022-09-09T05:14:33;17.59;74.98
69944;DHT22;57257;48.408;-4.498;2022-09-09T05:17:00;17.62;75.10
69944;DHT22;57257;48.408;-4.498;2022-09-09T05:19:25;17.63;75.11
69944;DHT22;57257;48.408;-4.498;2022-09-09T05:21:50;17.59;75.09
69944;DHT22;57257;48.408;-4.498;2022-09-09T05:24:16;17.57;75.16
69944;DHT22;57257;48.408;-4.498;2022-09-09T05:26:42;17.63;75.23
69944;DHT22;57257;48.408;-4.498;2022-09-09T05:29:08;17.66;75.24
69944;DHT22;57257;48.408;-4.498;2022-09-09T05:31:34;17.66;75.26
69944;DHT22;57257;48.408;-4.498;2022-09-09T05:33:59;17.69;75.21
69944;DHT22;57257;48.408;-4.498;2022-09-09T05:36:25;17.71;75.26
69944;DHT22;57257;48.408;-4.498;2022-09-09T05:38:50;17.77;75.22
69944;DHT22;57257;48.408;-4.498;2022-09-09T05:41:19;17.80;75.12
69944;DHT22;57257;48.408;-4.498;2022-09-09T05:43:45;17.78;75.17
69944;DHT22;57257;48.408;-4.498;2022-09-09T05:46:16;17.81;75.21
69944;DHT22;57257;48.408;-4.498;2022-09-09T05:48:44;17.83;75.20
69944;DHT22;57257;48.408;-4.498;2022-09-09T05:51:14;17.86;75.27
69944;DHT22;57257;48.408;-4.498;2022-09-09T05:53:43;17.88;75.27
69944;DHT22;57257;48.408;-4.498;2022-09-09T05:56:14;17.91;75.26
69944;DHT22;57257;48.408;-4.498;2022-09-09T05:58:40;17.91;75.16
69944;DHT22;57257;48.408;-4.498;2022-09-09T06:01:16;17.93;75.08
69944;DHT22;57257;48.408;-4.498;2022-09-09T06:03:44;17.94;75.10
69944;DHT22;57257;48.408;-4.498;2022-09-09T06:06:15;17.94;75.20
69944;DHT22;57257;48.408;-4.498;2022-09-09T06:08:43;17.94;75.19
69944;DHT22;57257;48.408;-4.498;2022-09-09T06:11:14;17.96;75.17
69944;DHT22;57257;48.408;-4.498;2022-09-09T06:13:41;17.91;75.42
69944;DHT22;57257;48.408;-4.498;2022-09-09T06:16:11;17.93;75.43
69944;DHT22;57257;48.408;-4.498;2022-09-09T06:18:40;17.90;75.43
69944;DHT22;57257;48.408;-4.498;2022-09-09T06:21:10;17.93;75.55
69944;DHT22;57257;48.408;-4.498;2022-09-09T06:23:39;17.93;75.48
69944;DHT22;57257;48.408;-4.498;2022-09-09T06:26:09;17.93;75.42
69944;DHT22;57257;48.408;-4.498;2022-09-09T06:28:36;17.94;75.43
69944;DHT22;57257;48.408;-4.498;2022-09-09T06:31:06;17.98;75.36
69944;DHT22;57257;48.408;-4.498;2022-09-09T06:33:37;18.07;75.33
69944;DHT22;57257;48.408;-4.498;2022-09-09T06:36:17;18.22;75.27
69944;DHT22;57257;48.408;-4.498;2022-09-09T06:38:43;18.48;74.90
69944;DHT22;57257;48.408;-4.498;2022-09-09T06:41:10;18.71;74.58
69944;DHT22;57257;48.408;-4.498;2022-09-09T06:43:36;18.93;74.27
69944;DHT22;57257;48.408;-4.498;2022-09-09T06:46:04;19.07;73.77
69944;DHT22;57257;48.408;-4.498;2022-09-09T06:48:30;19.07;73.28
69944;DHT22;57257;48.408;-4.498;2022-09-09T06:51:14;18.98;73.29
69944;DHT22;57257;48.408;-4.498;2022-09-09T06:53:41;18.88;73.24
69944;DHT22;57257;48.408;-4.498;2022-09-09T06:58:37;18.91;73.64
69944;DHT22;57257;48.408;-4.498;2022-09-09T07:01:09;18.96;73.67
69944;DHT22;57257;48.408;-4.498;2022-09-09T07:03:35;18.98;73.55
69944;DHT22;57257;48.408;-4.498;2022-09-09T07:06:01;18.98;73.43
69944;DHT22;57257;48.408;-4.498;2022-09-09T07:08:27;18.96;73.53
69944;DHT22;57257;48.408;-4.498;2022-09-09T07:10:53;18.95;73.68
69944;DHT22;57257;48.408;-4.498;2022-09-09T07:13:24;18.95;73.55
69944;DHT22;57257;48.408;-4.498;2022-09-09T07:15:51;18.91;73.53
69944;DHT22;57257;48.408;-4.498;2022-09-09T07:18:17;18.91;73.47
69944;DHT22;57257;48.408;-4.498;2022-09-09T07:20:42;18.83;73.46
69944;DHT22;57257;48.408;-4.498;2022-09-09T07:23:08;18.82;73.57
69944;DHT22;57257;48.408;-4.498;2022-09-09T07:25:33;18.82;73.46
69944;DHT22;57257;48.408;-4.498;2022-09-09T07:27:58;18.81;73.52
69944;DHT22;57257;48.408;-4.498;2022-09-09T07:30:24;18.82;73.58
69944;DHT22;57257;48.408;-4.498;2022-09-09T07:32:51;18.82;73.53
69944;DHT22;57257;48.408;-4.498;2022-09-09T07:35:17;18.88;73.50
69944;DHT22;57257;48.408;-4.498;2022-09-09T07:37:42;18.92;73.53
69944;DHT22;57257;48.408;-4.498;2022-09-09T07:40:09;19.10;73.61
69944;DHT22;57257;48.408;-4.498;2022-09-09T07:42:35;19.38;73.18
69944;DHT22;57257;48.408;-4.498;2022-09-09T07:45:01;19.66;72.55
69944;DHT22;57257;48.408;-4.498;2022-09-09T07:47:27;19.77;72.32
69944;DHT22;57257;48.408;-4.498;2022-09-09T07:49:52;20.09;72.17
69944;DHT22;57257;48.408;-4.498;2022-09-09T07:52:18;20.21;71.73
69944;DHT22;57257;48.408;-4.498;2022-09-09T07:54:45;20.48;71.38
69944;DHT22;57257;48.408;-4.498;2022-09-09T07:57:10;20.52;70.89
69944;DHT22;57257;48.408;-4.498;2022-09-09T07:59:37;20.46;70.53
69944;DHT22;57257;48.408;-4.498;2022-09-09T08:02:03;20.39;70.46
69944;DHT22;57257;48.408;-4.498;2022-09-09T08:04:29;20.38;70.64
69944;DHT22;57257;48.408;-4.498;2022-09-09T08:06:57;20.38;70.35
69944;DHT22;57257;48.408;-4.498;2022-09-09T08:09:24;20.32;70.24
69944;DHT22;57257;48.408;-4.498;2022-09-09T08:11:52;20.29;70.15
69944;DHT22;57257;48.408;-4.498;2022-09-09T08:14:18;20.26;70.12
69944;DHT22;57257;48.408;-4.498;2022-09-09T08:16:45;20.24;70.04
69944;DHT22;57257;48.408;-4.498;2022-09-09T08:19:12;20.25;69.93
69944;DHT22;57257;48.408;-4.498;2022-09-09T08:21:39;20.25;70.04
69944;DHT22;57257;48.408;-4.498;2022-09-09T08:24:06;20.21;69.86
69944;DHT22;57257;48.408;-4.498;2022-09-09T08:26:34;20.17;69.58
69944;DHT22;57257;48.408;-4.498;2022-09-09T08:29:01;20.11;69.69
69944;DHT22;57257;48.408;-4.498;2022-09-09T08:31:35;20.04;69.86
69944;DHT22;57257;48.408;-4.498;2022-09-09T08:34:03;20.01;69.82
69944;DHT22;57257;48.408;-4.498;2022-09-09T08:36:33;20.00;70.14
69944;DHT22;57257;48.408;-4.498;2022-09-09T08:38:59;20.22;70.30
69944;DHT22;57257;48.408;-4.498;2022-09-09T08:52:14;21.08;68.92
69944;DHT22;57257;48.408;-4.498;2022-09-09T08:54:41;21.16;68.52
69944;DHT22;57257;48.408;-4.498;2022-09-09T08:57:13;21.11;67.66
69944;DHT22;57257;48.408;-4.498;2022-09-09T08:59:40;21.04;67.50
69944;DHT22;57257;48.408;-4.498;2022-09-09T09:02:16;20.90;67.48
69944;DHT22;57257;48.408;-4.498;2022-09-09T09:13:01;20.42;67.91
69944;DHT22;57257;48.408;-4.498;2022-09-09T09:15:37;20.45;68.06
69944;DHT22;57257;48.408;-4.498;2022-09-09T09:18:04;20.45;68.12
69944;DHT22;57257;48.408;-4.498;2022-09-09T09:20:54;20.41;68.25
69944;DHT22;57257;48.408;-4.498;2022-09-09T09:23:25;20.36;68.36
69944;DHT22;57257;48.408;-4.498;2022-09-09T09:25:56;20.29;68.12
69944;DHT22;57257;48.408;-4.498;2022-09-09T09:28:27;20.29;68.21
69944;DHT22;57257;48.408;-4.498;2022-09-09T09:31:05;20.33;68.50
69944;DHT22;57257;48.408;-4.498;2022-09-09T09:33:38;20.41;68.44
69944;DHT22;57257;48.408;-4.498;2022-09-09T09:36:08;20.45;68.50
69944;DHT22;57257;48.408;-4.498;2022-09-09T09:38:35;20.51;68.42
69944;DHT22;57257;48.408;-4.498;2022-09-09T09:41:01;20.63;68.54
69944;DHT22;57257;48.408;-4.498;2022-09-09T09:43:29;20.73;68.14
69944;DHT22;57257;48.408;-4.498;2022-09-09T09:45:55;20.85;67.60
69944;DHT22;57257;48.408;-4.498;2022-09-09T09:48:23;20.90;67.12
69944;DHT22;57257;48.408;-4.498;2022-09-09T09:51:00;20.89;67.15
69944;DHT22;57257;48.408;-4.498;2022-09-09T09:53:31;21.02;66.76
69944;DHT22;57257;48.408;-4.498;2022-09-09T09:56:00;21.10;66.35
69944;DHT22;57257;48.408;-4.498;2022-09-09T09:58:29;21.14;66.61
69944;DHT22;57257;48.408;-4.498;2022-09-09T10:00:56;21.19;66.54
69944;DHT22;57257;48.408;-4.498;2022-09-09T10:03:26;21.19;66.16
69944;DHT22;57257;48.408;-4.498;2022-09-09T10:05:52;21.04;65.36
69944;DHT22;57257;48.408;-4.498;2022-09-09T10:08:18;20.87;64.62
69944;DHT22;57257;48.408;-4.498;2022-09-09T10:11:16;20.80;65.00
69944;DHT22;57257;48.408;-4.498;2022-09-09T10:13:51;20.87;65.49
69944;DHT22;57257;48.408;-4.498;2022-09-09T10:16:33;20.93;65.12
69944;DHT22;57257;48.408;-4.498;2022-09-09T10:19:03;20.92;64.79
69944;DHT22;57257;48.408;-4.498;2022-09-09T10:22:08;20.93;65.06
69944;DHT22;57257;48.408;-4.498;2022-09-09T10:28:10;21.07;65.08
69944;DHT22;57257;48.408;-4.498;2022-09-09T10:33:40;21.44;64.39
69944;DHT22;57257;48.408;-4.498;2022-09-09T10:36:21;21.74;64.35
69944;DHT22;57257;48.408;-4.498;2022-09-09T10:38:53;21.87;63.89
69944;DHT22;57257;48.408;-4.498;2022-09-09T10:52:22;20.95;64.57
69944;DHT22;57257;48.408;-4.498;2022-09-09T10:55:00;20.85;64.33
69944;DHT22;57257;48.408;-4.498;2022-09-09T10:57:36;20.80;64.95
69944;DHT22;57257;48.408;-4.498;2022-09-09T11:00:14;20.85;65.57
69944;DHT22;57257;48.408;-4.498;2022-09-09T11:02:41;20.85;65.49
69944;DHT22;57257;48.408;-4.498;2022-09-09T11:05:27;20.93;66.02
69944;DHT22;57257;48.408;-4.498;2022-09-09T11:07:59;21.26;66.36
69944;DHT22;57257;48.408;-4.498;2022-09-09T11:10:45;21.30;65.23
69944;DHT22;57257;48.408;-4.498;2022-09-09T11:13:43;21.10;65.09
69944;DHT22;57257;48.408;-4.498;2022-09-09T11:18:42;20.99;65.51
69944;DHT22;57257;48.408;-4.498;2022-09-09T11:21:17;20.93;65.87
69944;DHT22;57257;48.408;-4.498;2022-09-09T11:23:50;20.95;65.71
69944;DHT22;57257;48.408;-4.498;2022-09-09T11:26:30;20.97;65.86
69944;DHT22;57257;48.408;-4.498;2022-09-09T11:41:46;21.78;64.69
69944;DHT22;57257;48.408;-4.498;2022-09-09T11:44:17;21.94;64.45
69944;DHT22;57257;48.408;-4.498;2022-09-09T11:46:49;22.04;63.08
69944;DHT22;57257;48.408;-4.498;2022-09-09T11:49:30;22.15;63.56
69944;DHT22;57257;48.408;-4.498;2022-09-09T11:52:19;22.25;62.79
69944;DHT22;57257;48.408;-4.498;2022-09-09T11:54:49;22.29;62.07
69944;DHT22;57257;48.408;-4.498;2022-09-09T11:57:39;22.23;60.74
69944;DHT22;57257;48.408;-4.498;2022-09-09T12:00:05;22.15;61.09
69944;DHT22;57257;48.408;-4.498;2022-09-09T12:02:31;22.15;61.76
69944;DHT22;57257;48.408;-4.498;2022-09-09T12:07:42;22.28;62.30
69944;DHT22;57257;48.408;-4.498;2022-09-09T12:10:26;22.38;61.75
69944;DHT22;57257;48.408;-4.498;2022-09-09T12:12:52;22.39;60.97
69944;DHT22;57257;48.408;-4.498;2022-09-09T12:15:22;22.46;60.33
69944;DHT22;57257;48.408;-4.498;2022-09-09T12:17:50;22.55;60.40
69944;DHT22;57257;48.408;-4.498;2022-09-09T12:20:17;22.66;60.67
69944;DHT22;57257;48.408;-4.498;2022-09-09T12:28:18;22.75;59.36
69944;DHT22;57257;48.408;-4.498;2022-09-09T12:30:58;22.77;59.59
69944;DHT22;57257;48.408;-4.498;2022-09-09T12:33:34;22.85;59.16
69944;DHT22;57257;48.408;-4.498;2022-09-09T12:36:01;22.93;59.21
69944;DHT22;57257;48.408;-4.498;2022-09-09T12:38:39;23.03;59.17
69944;DHT22;57257;48.408;-4.498;2022-09-09T12:41:05;23.02;58.34
69944;DHT22;57257;48.408;-4.498;2022-09-09T12:43:31;23.02;58.74
69944;DHT22;57257;48.408;-4.498;2022-09-09T12:46:08;23.02;57.82
69944;DHT22;57257;48.408;-4.498;2022-09-09T12:48:40;23.00;58.48
69944;DHT22;57257;48.408;-4.498;2022-09-09T12:51:29;22.90;56.98
69944;DHT22;57257;48.408;-4.498;2022-09-09T12:53:56;22.79;57.44
69944;DHT22;57257;48.408;-4.498;2022-09-09T12:56:24;22.75;57.85
69944;DHT22;57257;48.408;-4.498;2022-09-09T12:58:53;22.77;58.03
69944;DHT22;57257;48.408;-4.498;2022-09-09T13:01:25;22.90;58.15
69944;DHT22;57257;48.408;-4.498;2022-09-09T13:03:51;23.00;58.27
69944;DHT22;57257;48.408;-4.498;2022-09-09T13:06:28;23.16;57.82
69944;DHT22;57257;48.408;-4.498;2022-09-09T13:08:57;23.24;57.36
69944;DHT22;57257;48.408;-4.498;2022-09-09T13:11:38;23.38;57.54
69944;DHT22;57257;48.408;-4.498;2022-09-09T13:14:05;23.47;57.14
69944;DHT22;57257;48.408;-4.498;2022-09-09T13:16:34;23.60;56.98
69944;DHT22;57257;48.408;-4.498;2022-09-09T13:19:06;23.64;56.66
69944;DHT22;57257;48.408;-4.498;2022-09-09T13:21:34;23.71;56.92
69944;DHT22;57257;48.408;-4.498;2022-09-09T13:24:00;23.86;57.31
69944;DHT22;57257;48.408;-4.498;2022-09-09T13:26:28;24.08;56.50
69944;DHT22;57257;48.408;-4.498;2022-09-09T13:29:07;24.23;56.21
69944;DHT22;57257;48.408;-4.498;2022-09-09T13:31:36;24.35;55.41
69944;DHT22;57257;48.408;-4.498;2022-09-09T13:34:26;24.32;54.32
69944;DHT22;57257;48.408;-4.498;2022-09-09T13:37:00;24.35;55.24
69944;DHT22;57257;48.408;-4.498;2022-09-09T13:39:32;24.48;54.72
69944;DHT22;57257;48.408;-4.498;2022-09-09T13:41:58;24.48;54.05
69944;DHT22;57257;48.408;-4.498;2022-09-09T13:44:29;24.29;53.91
69944;DHT22;57257;48.408;-4.498;2022-09-09T13:49:39;23.86;54.41
69944;DHT22;57257;48.408;-4.498;2022-09-09T13:54:32;24.00;54.57
69944;DHT22;57257;48.408;-4.498;2022-09-09T13:56:58;23.97;53.97
69944;DHT22;57257;48.408;-4.498;2022-09-09T13:59:24;23.97;54.18
69944;DHT22;57257;48.408;-4.498;2022-09-09T14:01:51;23.88;53.93
69944;DHT22;57257;48.408;-4.498;2022-09-09T14:04:18;23.74;54.57
69944;DHT22;57257;48.408;-4.498;2022-09-09T14:06:47;23.71;55.04
69944;DHT22;57257;48.408;-4.498;2022-09-09T14:09:14;23.86;55.56
69944;DHT22;57257;48.408;-4.498;2022-09-09T14:11:40;24.23;55.15
69944;DHT22;57257;48.408;-4.498;2022-09-09T14:14:06;24.37;53.94
69944;DHT22;57257;48.408;-4.498;2022-09-09T14:16:32;24.39;54.42
69944;DHT22;57257;48.408;-4.498;2022-09-09T14:18:58;24.26;54.63
69944;DHT22;57257;48.408;-4.498;2022-09-09T14:21:25;24.06;54.48
69944;DHT22;57257;48.408;-4.498;2022-09-09T14:23:51;23.86;54.85
69944;DHT22;57257;48.408;-4.498;2022-09-09T14:26:18;23.86;55.14
69944;DHT22;57257;48.408;-4.498;2022-09-09T14:28:46;24.06;54.76
69944;DHT22;57257;48.408;-4.498;2022-09-09T14:31:12;24.25;54.45
69944;DHT22;57257;48.408;-4.498;2022-09-09T14:33:39;24.51;54.56
69944;DHT22;57257;48.408;-4.498;2022-09-09T14:36:05;24.53;54.04
69944;DHT22;57257;48.408;-4.498;2022-09-09T14:38:35;24.40;55.35
69944;DHT22;57257;48.408;-4.498;2022-09-09T14:41:12;24.16;55.94
69944;DHT22;57257;48.408;-4.498;2022-09-09T14:43:39;24.30;57.03
69944;DHT22;57257;48.408;-4.498;2022-09-09T14:46:06;24.39;56.75
69944;DHT22;57257;48.408;-4.498;2022-09-09T14:48:32;24.21;56.50
69944;DHT22;57257;48.408;-4.498;2022-09-09T14:51:08;24.02;57.21
69944;DHT22;57257;48.408;-4.498;2022-09-09T14:53:33;24.26;57.44
69944;DHT22;57257;48.408;-4.498;2022-09-09T14:56:09;24.25;56.90
69944;DHT22;57257;48.408;-4.498;2022-09-09T14:58:35;24.13;57.08
69944;DHT22;57257;48.408;-4.498;2022-09-09T15:01:03;24.08;57.01
69944;DHT22;57257;48.408;-4.498;2022-09-09T15:03:29;23.95;57.04
69944;DHT22;57257;48.408;-4.498;2022-09-09T15:05:54;25.00;56.47
69944;DHT22;57257;48.408;-4.498;2022-09-09T15:08:20;26.11;53.87
69944;DHT22;57257;48.408;-4.498;2022-09-09T15:10:45;26.02;52.71
69944;DHT22;57257;48.408;-4.498;2022-09-09T15:13:14;25.62;52.71
69944;DHT22;57257;48.408;-4.498;2022-09-09T15:15:42;25.95;52.81
69944;DHT22;57257;48.408;-4.498;2022-09-09T15:18:08;26.66;52.16
69944;DHT22;57257;48.408;-4.498;2022-09-09T15:20:33;26.59;51.57
69944;DHT22;57257;48.408;-4.498;2022-09-09T15:23:02;26.14;52.05
69944;DHT22;57257;48.408;-4.498;2022-09-09T15:25:28;25.78;52.54
69944;DHT22;57257;48.408;-4.498;2022-09-09T15:27:53;25.42;53.47
69944;DHT22;57257;48.408;-4.498;2022-09-09T15:30:18;25.14;53.59
69944;DHT22;57257;48.408;-4.498;2022-09-09T15:32:44;24.82;53.90
69944;DHT22;57257;48.408;-4.498;2022-09-09T15:35:09;24.76;54.20
69944;DHT22;57257;48.408;-4.498;2022-09-09T15:37:35;24.70;54.50
69944;DHT22;57257;48.408;-4.498;2022-09-09T15:40:00;24.66;53.56
69944;DHT22;57257;48.408;-4.498;2022-09-09T15:42:26;24.51;54.14
69944;DHT22;57257;48.408;-4.498;2022-09-09T15:44:51;24.30;54.19
69944;DHT22;57257;48.408;-4.498;2022-09-09T15:47:17;24.19;54.36
69944;DHT22;57257;48.408;-4.498;2022-09-09T15:49:43;24.04;54.39
69944;DHT22;57257;48.408;-4.498;2022-09-09T15:52:10;23.82;54.99
69944;DHT22;57257;48.408;-4.498;2022-09-09T15:54:36;23.70;55.45
69944;DHT22;57257;48.408;-4.498;2022-09-09T15:57:05;23.58;55.59
69944;DHT22;57257;48.408;-4.498;2022-09-09T15:59:31;23.38;55.98
69944;DHT22;57257;48.408;-4.498;2022-09-09T16:01:58;23.28;56.65
69944;DHT22;57257;48.408;-4.498;2022-09-09T16:04:26;23.26;56.77
69944;DHT22;57257;48.408;-4.498;2022-09-09T16:06:53;23.23;57.02
69944;DHT22;57257;48.408;-4.498;2022-09-09T16:09:20;23.17;57.20
69944;DHT22;57257;48.408;-4.498;2022-09-09T16:11:46;23.02;57.22
69944;DHT22;57257;48.408;-4.498;2022-09-09T16:14:13;22.89;57.54
69944;DHT22;57257;48.408;-4.498;2022-09-09T16:16:41;22.83;57.68
69944;DHT22;57257;48.408;-4.498;2022-09-09T16:19:08;22.83;58.00
69944;DHT22;57257;48.408;-4.498;2022-09-09T16:21:43;22.87;57.83
69944;DHT22;57257;48.408;-4.498;2022-09-09T16:24:11;22.89;57.96
69944;DHT22;57257;48.408;-4.498;2022-09-09T16:26:42;22.93;57.80
69944;DHT22;57257;48.408;-4.498;2022-09-09T16:29:11;22.99;57.92
69944;DHT22;57257;48.408;-4.498;2022-09-09T16:31:37;23.04;57.72
69944;DHT22;57257;48.408;-4.498;2022-09-09T16:34:03;23.04;57.69
69944;DHT22;57257;48.408;-4.498;2022-09-09T16:36:31;22.99;57.36
69944;DHT22;57257;48.408;-4.498;2022-09-09T16:39:11;22.83;57.45
69944;DHT22;57257;48.408;-4.498;2022-09-09T16:41:37;22.76;57.93
69944;DHT22;57257;48.408;-4.498;2022-09-09T16:44:06;22.75;57.90
69944;DHT22;57257;48.408;-4.498;2022-09-09T16:46:35;22.72;58.11
69944;DHT22;57257;48.408;-4.498;2022-09-09T16:49:03;22.69;58.23
69944;DHT22;57257;48.408;-4.498;2022-09-09T16:51:31;22.65;58.23
69944;DHT22;57257;48.408;-4.498;2022-09-09T16:54:01;22.56;58.57
69944;DHT22;57257;48.408;-4.498;2022-09-09T16:56:29;22.41;58.56
69944;DHT22;57257;48.408;-4.498;2022-09-09T16:59:03;22.25;58.92
69944;DHT22;57257;48.408;-4.498;2022-09-09T17:01:31;22.23;59.30
69944;DHT22;57257;48.408;-4.498;2022-09-09T17:03:59;22.26;59.50
69944;DHT22;57257;48.408;-4.498;2022-09-09T17:06:29;22.29;59.59
69944;DHT22;57257;48.408;-4.498;2022-09-09T17:08:56;22.29;59.67
69944;DHT22;57257;48.408;-4.498;2022-09-09T17:11:22;22.26;59.52
69944;DHT22;57257;48.408;-4.498;2022-09-09T17:13:49;22.19;59.54